sensor_id;sensor_type;location;lat;lon;timestamp;pressure;altitude;pressure_sealevel;temperature;humidity
48862;BME280;34681;49.188;-0.374;2023-05-08T00:02:23;102016.56;;;18.15;59.90
48862;BME280;34681;49.188;-0.374;2023-05-08T00:04:48;102019.38;;;18.23;59.53
48862;BME280;34681;49.188;-0.374;2023-05-08T00:07:13;102022.97;;;18.15;59.96
48862;BME280;34681;49.188;-0.374;2023-05-08T00:09:39;102020.72;;;18.19;59.98
48862;BME280;34681;49.188;-0.374;2023-05-08T00:12:04;102024.56;;;18.26;59.61
48862;BME280;34681;49.188;-0.374;2023-05-08T00:14:30;102022.13;;;18.15;60.08
48862;BME280;34681;49.188;-0.374;2023-05-08T00:16:55;102014.66;;;18.15;60.25
48862;BME280;34681;49.188;-0.374;2023-05-08T00:19:20;102013.84;;;18.23;59.56
48862;BME280;34681;49.188;-0.374;2023-05-08T00:21:46;102017.28;;;18.17;59.58
48862;BME280;34681;49.188;-0.374;2023-05-08T00:24:11;102010.31;;;18.05;60.31
48862;BME280;34681;49.188;-0.374;2023-05-08T00:26:36;102013.59;;;18.08;59.92
48862;BME280;34681;49.188;-0.374;2023-05-08T00:29:02;102006.84;;;18.11;59.85
48862;BME280;34681;49.188;-0.374;2023-05-08T00:31:27;102004.06;;;18.11;59.61
48862;BME280;34681;49.188;-0.374;2023-05-08T00:33:52;101995.38;;;17.98;60.16
48862;BME280;34681;49.188;-0.374;2023-05-08T00:36:18;101990.19;;;18.03;60.28
48862;BME280;34681;49.188;-0.374;2023-05-08T00:38:43;101990.75;;;18.06;59.98
48862;BME280;34681;49.188;-0.374;2023-05-08T00:41:09;101989.66;;;17.99;60.14
48862;BME280;34681;49.188;-0.374;2023-05-08T00:43:34;101991.38;;;18.00;60.14
48862;BME280;34681;49.188;-0.374;2023-05-08T00:46:01;101992.44;;;17.99;60.04
48862;BME280;34681;49.188;-0.374;2023-05-08T00:48:31;101990.53;;;18.00;60.54
48862;BME280;34681;49.188;-0.374;2023-05-08T00:50:59;101982.94;;;18.10;59.87
48862;BME280;34681;49.188;-0.374;2023-05-08T00:53:26;101980.16;;;18.02;60.40
48862;BME280;34681;49.188;-0.374;2023-05-08T00:55:52;101975.47;;;18.02;60.32
48862;BME280;34681;49.188;-0.374;2023-05-08T00:58:19;101975.66;;;18.01;60.19
48862;BME280;34681;49.188;-0.374;2023-05-08T01:00:45;101976.63;;;17.91;60.67
48862;BME280;34681;49.188;-0.374;2023-05-08T01:03:11;101973.91;;;18.00;60.56
48862;BME280;34681;49.188;-0.374;2023-05-08T01:05:37;101966.66;;;17.99;60.54
48862;BME280;34681;49.188;-0.374;2023-05-08T01:08:03;101970.06;;;17.92;60.74
48862;BME280;34681;49.188;-0.374;2023-05-08T01:10:42;101970.09;;;18.01;60.63
48862;BME280;34681;49.188;-0.374;2023-05-08T01:15:55;101964.88;;;17.89;60.66
48862;BME280;34681;49.188;-0.374;2023-05-08T01:18:35;101959.38;;;17.98;60.48
48862;BME280;34681;49.188;-0.374;2023-05-08T01:21:13;101960.75;;;18.02;60.47
48862;BME280;34681;49.188;-0.374;2023-05-08T01:32:35;101965.56;;;17.91;61.05
48862;BME280;34681;49.188;-0.374;2023-05-08T01:37:50;101969.41;;;17.99;61.04
48862;BME280;34681;49.188;-0.374;2023-05-08T01:43:12;101956.38;;;17.91;61.46
48862;BME280;34681;49.188;-0.374;2023-05-08T01:45:39;101962.72;;;17.75;61.85
48862;BME280;34681;49.188;-0.374;2023-05-08T01:48:11;101955.97;;;17.78;61.81
48862;BME280;34681;49.188;-0.374;2023-05-08T01:50:45;101964.50;;;17.84;61.88
48862;BME280;34681;49.188;-0.374;2023-05-08T01:53:24;101961.59;;;17.94;61.48
48862;BME280;34681;49.188;-0.374;2023-05-08T01:55:55;101973.31;;;17.80;62.03
48862;BME280;34681;49.188;-0.374;2023-05-08T01:58:23;101966.22;;;17.85;61.98
48862;BME280;34681;49.188;-0.374;2023-05-08T02:00:50;101964.31;;;17.86;62.10
48862;BME280;34681;49.188;-0.374;2023-05-08T02:03:17;101965.00;;;17.80;62.47
48862;BME280;34681;49.188;-0.374;2023-05-08T02:05:45;101958.47;;;17.89;61.90
48862;BME280;34681;49.188;-0.374;2023-05-08T02:08:13;101962.38;;;17.78;62.29
48862;BME280;34681;49.188;-0.374;2023-05-08T02:10:40;101957.16;;;17.75;62.54
48862;BME280;34681;49.188;-0.374;2023-05-08T02:13:08;101972.44;;;17.79;62.25
48862;BME280;34681;49.188;-0.374;2023-05-08T02:15:34;101970.41;;;17.89;61.55
48862;BME280;34681;49.188;-0.374;2023-05-08T02:18:03;101969.50;;;17.81;62.05
48862;BME280;34681;49.188;-0.374;2023-05-08T02:20:30;101974.88;;;17.82;62.03
48862;BME280;34681;49.188;-0.374;2023-05-08T02:22:57;101965.19;;;17.86;61.46
48862;BME280;34681;49.188;-0.374;2023-05-08T02:25:23;101963.75;;;17.74;61.91
48862;BME280;34681;49.188;-0.374;2023-05-08T02:27:50;101969.50;;;17.81;62.18
48862;BME280;34681;49.188;-0.374;2023-05-08T02:30:18;101971.44;;;17.88;61.47
48862;BME280;34681;49.188;-0.374;2023-05-08T02:32:45;101965.00;;;17.80;61.59
48862;BME280;34681;49.188;-0.374;2023-05-08T02:35:15;101965.31;;;17.77;61.61
48862;BME280;34681;49.188;-0.374;2023-05-08T02:38:01;101963.28;;;17.87;61.50
48862;BME280;34681;49.188;-0.374;2023-05-08T02:40:28;101967.25;;;17.84;61.60
48862;BME280;34681;49.188;-0.374;2023-05-08T02:42:54;101955.78;;;17.71;62.07
48862;BME280;34681;49.188;-0.374;2023-05-08T02:45:22;101953.06;;;17.79;61.65
48862;BME280;34681;49.188;-0.374;2023-05-08T02:48:12;101950.81;;;17.83;61.71
48862;BME280;34681;49.188;-0.374;2023-05-08T02:53:19;101949.72;;;17.76;61.67
48862;BME280;34681;49.188;-0.374;2023-05-08T02:55:48;101951.13;;;17.54;62.38
48862;BME280;34681;49.188;-0.374;2023-05-08T02:58:27;101953.63;;;17.65;62.12
48862;BME280;34681;49.188;-0.374;2023-05-08T03:01:02;101968.00;;;17.68;62.02
48862;BME280;34681;49.188;-0.374;2023-05-08T03:03:40;101964.53;;;17.66;62.14
48862;BME280;34681;49.188;-0.374;2023-05-08T03:06:12;101967.84;;;17.70;62.22
48862;BME280;34681;49.188;-0.374;2023-05-08T03:08:39;101956.31;;;17.75;61.33
48862;BME280;34681;49.188;-0.374;2023-05-08T03:11:08;101952.03;;;17.62;61.80
48862;BME280;34681;49.188;-0.374;2023-05-08T03:13:37;101947.66;;;17.52;62.20
48862;BME280;34681;49.188;-0.374;2023-05-08T03:16:05;101953.19;;;17.52;62.32
48862;BME280;34681;49.188;-0.374;2023-05-08T03:18:41;101952.31;;;17.51;62.07
48862;BME280;34681;49.188;-0.374;2023-05-08T03:21:10;101949.84;;;17.40;62.10
48862;BME280;34681;49.188;-0.374;2023-05-08T03:23:38;101949.66;;;17.41;62.07
48862;BME280;34681;49.188;-0.374;2023-05-08T03:26:05;101941.78;;;17.29;62.50
48862;BME280;34681;49.188;-0.374;2023-05-08T03:28:34;101942.28;;;17.24;62.30
48862;BME280;34681;49.188;-0.374;2023-05-08T03:31:00;101944.88;;;17.26;62.05
48862;BME280;34681;49.188;-0.374;2023-05-08T03:33:27;101946.31;;;17.12;62.32
48862;BME280;34681;49.188;-0.374;2023-05-08T03:35:54;101937.75;;;16.97;62.77
48862;BME280;34681;49.188;-0.374;2023-05-08T03:38:20;101940.66;;;16.96;63.05
48862;BME280;34681;49.188;-0.374;2023-05-08T03:40:46;101939.66;;;16.97;62.86
48862;BME280;34681;49.188;-0.374;2023-05-08T03:43:14;101940.13;;;16.92;62.80
48862;BME280;34681;49.188;-0.374;2023-05-08T03:45:40;101943.91;;;16.91;62.94
48862;BME280;34681;49.188;-0.374;2023-05-08T03:48:07;101937.09;;;16.68;63.57
48862;BME280;34681;49.188;-0.374;2023-05-08T03:50:34;101930.28;;;16.72;63.52
48862;BME280;34681;49.188;-0.374;2023-05-08T03:53:00;101936.25;;;16.85;62.85
48862;BME280;34681;49.188;-0.374;2023-05-08T03:55:26;101934.75;;;16.73;63.58
48862;BME280;34681;49.188;-0.374;2023-05-08T04:01:09;101930.09;;;16.73;63.30
48862;BME280;34681;49.188;-0.374;2023-05-08T04:04:00;101923.84;;;16.71;63.35
48862;BME280;34681;49.188;-0.374;2023-05-08T04:06:30;101927.94;;;16.67;63.22
48862;BME280;34681;49.188;-0.374;2023-05-08T04:09:07;101932.50;;;16.58;63.58
48862;BME280;34681;49.188;-0.374;2023-05-08T04:11:43;101939.69;;;16.51;64.15
48862;BME280;34681;49.188;-0.374;2023-05-08T04:14:15;101933.84;;;16.54;63.95
48862;BME280;34681;49.188;-0.374;2023-05-08T04:16:47;101925.09;;;16.59;63.80
48862;BME280;34681;49.188;-0.374;2023-05-08T04:19:26;101929.75;;;16.58;63.71
48862;BME280;34681;49.188;-0.374;2023-05-08T04:21:57;101923.59;;;16.65;63.32
48862;BME280;34681;49.188;-0.374;2023-05-08T04:24:24;101914.75;;;16.43;63.91
48862;BME280;34681;49.188;-0.374;2023-05-08T04:26:52;101923.28;;;16.50;64.03
48862;BME280;34681;49.188;-0.374;2023-05-08T04:29:18;101913.41;;;16.47;63.98
48862;BME280;34681;49.188;-0.374;2023-05-08T04:31:44;101917.75;;;16.50;63.83
48862;BME280;34681;49.188;-0.374;2023-05-08T04:34:09;101915.84;;;16.50;63.91
48862;BME280;34681;49.188;-0.374;2023-05-08T04:36:36;101921.72;;;16.47;64.09
48862;BME280;34681;49.188;-0.374;2023-05-08T04:39:02;101926.44;;;16.55;63.84
48862;BME280;34681;49.188;-0.374;2023-05-08T04:41:27;101927.06;;;16.49;63.61
48862;BME280;34681;49.188;-0.374;2023-05-08T04:43:53;101915.16;;;16.66;63.29
48862;BME280;34681;49.188;-0.374;2023-05-08T04:46:18;101920.16;;;16.80;62.90
48862;BME280;34681;49.188;-0.374;2023-05-08T04:48:43;101923.53;;;16.92;62.79
48862;BME280;34681;49.188;-0.374;2023-05-08T04:51:09;101922.44;;;16.85;63.20
48862;BME280;34681;49.188;-0.374;2023-05-08T04:53:34;101922.84;;;16.90;62.76
48862;BME280;34681;49.188;-0.374;2023-05-08T04:56:00;101927.69;;;16.96;62.88
48862;BME280;34681;49.188;-0.374;2023-05-08T04:58:25;101930.00;;;17.01;62.48
48862;BME280;34681;49.188;-0.374;2023-05-08T05:00:50;101927.81;;;17.12;62.45
48862;BME280;34681;49.188;-0.374;2023-05-08T05:03:16;101926.66;;;17.15;62.23
48862;BME280;34681;49.188;-0.374;2023-05-08T05:05:41;101928.50;;;17.06;62.15
48862;BME280;34681;49.188;-0.374;2023-05-08T05:08:06;101926.88;;;17.22;62.14
48862;BME280;34681;49.188;-0.374;2023-05-08T05:10:32;101923.09;;;17.49;61.14
48862;BME280;34681;49.188;-0.374;2023-05-08T05:12:57;101931.66;;;17.63;60.49
48862;BME280;34681;49.188;-0.374;2023-05-08T05:15:22;101929.88;;;17.80;60.45
48862;BME280;34681;49.188;-0.374;2023-05-08T05:17:48;101933.19;;;17.92;59.97
48862;BME280;34681;49.188;-0.374;2023-05-08T05:20:13;101934.75;;;17.94;59.68
48862;BME280;34681;49.188;-0.374;2023-05-08T05:22:39;101938.81;;;18.08;59.42
48862;BME280;34681;49.188;-0.374;2023-05-08T05:25:04;101945.16;;;18.43;58.47
48862;BME280;34681;49.188;-0.374;2023-05-08T05:27:30;101945.78;;;18.29;58.90
48862;BME280;34681;49.188;-0.374;2023-05-08T05:29:56;101939.78;;;18.41;57.99
48862;BME280;34681;49.188;-0.374;2023-05-08T05:32:21;101943.03;;;18.29;57.97
48862;BME280;34681;49.188;-0.374;2023-05-08T05:34:47;101942.50;;;18.25;58.25
48862;BME280;34681;49.188;-0.374;2023-05-08T05:37:12;101934.56;;;18.30;57.76
48862;BME280;34681;49.188;-0.374;2023-05-08T05:39:37;101940.22;;;18.12;58.59
48862;BME280;34681;49.188;-0.374;2023-05-08T05:42:03;101941.13;;;18.21;58.10
48862;BME280;34681;49.188;-0.374;2023-05-08T05:44:28;101936.78;;;18.27;58.04
48862;BME280;34681;49.188;-0.374;2023-05-08T05:46:53;101947.34;;;18.23;57.88
48862;BME280;34681;49.188;-0.374;2023-05-08T05:49:19;101952.31;;;18.11;59.18
48862;BME280;34681;49.188;-0.374;2023-05-08T05:51:44;101947.88;;;18.27;58.97
48862;BME280;34681;49.188;-0.374;2023-05-08T05:54:09;101949.00;;;18.58;57.68
48862;BME280;34681;49.188;-0.374;2023-05-08T05:56:35;101959.31;;;19.39;55.46
48862;BME280;34681;49.188;-0.374;2023-05-08T05:59:00;101951.50;;;20.06;54.21
48862;BME280;34681;49.188;-0.374;2023-05-08T06:01:25;101960.03;;;21.44;51.55
48862;BME280;34681;49.188;-0.374;2023-05-08T06:03:53;101955.97;;;23.57;46.34
48862;BME280;34681;49.188;-0.374;2023-05-08T06:06:18;101965.34;;;24.40;44.39
48862;BME280;34681;49.188;-0.374;2023-05-08T06:08:43;101964.72;;;25.18;43.06
48862;BME280;34681;49.188;-0.374;2023-05-08T06:11:09;101970.38;;;26.49;41.05
48862;BME280;34681;49.188;-0.374;2023-05-08T06:13:34;101978.97;;;27.31;39.00
48862;BME280;34681;49.188;-0.374;2023-05-08T06:15:59;101982.31;;;26.76;38.66
48862;BME280;34681;49.188;-0.374;2023-05-08T06:18:25;101976.78;;;28.44;36.77
48862;BME280;34681;49.188;-0.374;2023-05-08T06:20:56;101984.31;;;30.46;33.35
48862;BME280;34681;49.188;-0.374;2023-05-08T06:23:21;101982.97;;;31.34;32.26
48862;BME280;34681;49.188;-0.374;2023-05-08T06:25:47;101979.81;;;31.81;31.45
48862;BME280;34681;49.188;-0.374;2023-05-08T06:28:13;101978.53;;;32.10;30.85
48862;BME280;34681;49.188;-0.374;2023-05-08T06:30:38;101987.69;;;31.62;31.23
48862;BME280;34681;49.188;-0.374;2023-05-08T06:33:03;101985.47;;;30.73;31.96
48862;BME280;34681;49.188;-0.374;2023-05-08T06:35:29;101985.47;;;30.62;32.54
48862;BME280;34681;49.188;-0.374;2023-05-08T06:37:54;101986.75;;;31.40;31.12
48862;BME280;34681;49.188;-0.374;2023-05-08T06:40:19;101984.16;;;32.27;30.49
48862;BME280;34681;49.188;-0.374;2023-05-08T06:42:45;101983.31;;;32.27;30.26
48862;BME280;34681;49.188;-0.374;2023-05-08T06:45:11;101989.00;;;32.10;29.82
48862;BME280;34681;49.188;-0.374;2023-05-08T06:47:36;101993.34;;;31.28;31.15
48862;BME280;34681;49.188;-0.374;2023-05-08T06:50:02;101987.56;;;29.26;33.26
48862;BME280;34681;49.188;-0.374;2023-05-08T06:52:27;101983.53;;;27.57;36.72
48862;BME280;34681;49.188;-0.374;2023-05-08T06:54:53;101992.53;;;27.09;37.06
48862;BME280;34681;49.188;-0.374;2023-05-08T06:57:18;101992.84;;;26.49;38.72
48862;BME280;34681;49.188;-0.374;2023-05-08T06:59:43;101992.84;;;26.29;39.13
48862;BME280;34681;49.188;-0.374;2023-05-08T07:02:09;102003.34;;;26.60;38.62
48862;BME280;34681;49.188;-0.374;2023-05-08T07:04:35;101999.88;;;25.81;40.10
48862;BME280;34681;49.188;-0.374;2023-05-08T07:07:01;101995.25;;;24.93;41.30
48862;BME280;34681;49.188;-0.374;2023-05-08T07:09:26;102003.06;;;24.16;43.05
48862;BME280;34681;49.188;-0.374;2023-05-08T07:11:51;102000.03;;;23.54;44.52
48862;BME280;34681;49.188;-0.374;2023-05-08T07:14:17;102009.09;;;23.14;45.60
48862;BME280;34681;49.188;-0.374;2023-05-08T07:16:42;102002.97;;;22.67;46.90
48862;BME280;34681;49.188;-0.374;2023-05-08T07:19:07;102002.66;;;22.77;46.65
48862;BME280;34681;49.188;-0.374;2023-05-08T07:21:33;102001.50;;;22.71;47.68
48862;BME280;34681;49.188;-0.374;2023-05-08T07:23:58;102007.28;;;22.70;47.86
48862;BME280;34681;49.188;-0.374;2023-05-08T07:26:23;102007.91;;;23.02;47.99
48862;BME280;34681;49.188;-0.374;2023-05-08T07:28:49;102009.84;;;23.72;46.79
48862;BME280;34681;49.188;-0.374;2023-05-08T07:31:15;102010.22;;;23.62;47.05
48862;BME280;34681;49.188;-0.374;2023-05-08T07:33:41;102006.84;;;23.73;46.82
48862;BME280;34681;49.188;-0.374;2023-05-08T07:36:06;102001.16;;;23.88;46.79
48862;BME280;34681;49.188;-0.374;2023-05-08T07:38:32;102005.09;;;23.94;46.50
48862;BME280;34681;49.188;-0.374;2023-05-08T07:40:57;101999.22;;;23.89;46.87
48862;BME280;34681;49.188;-0.374;2023-05-08T07:43:24;101998.72;;;23.50;47.69
48862;BME280;34681;49.188;-0.374;2023-05-08T07:45:49;102004.56;;;23.13;47.82
48862;BME280;34681;49.188;-0.374;2023-05-08T07:48:15;101998.63;;;22.65;48.53
48862;BME280;34681;49.188;-0.374;2023-05-08T07:50:40;102005.88;;;22.59;49.09
48862;BME280;34681;49.188;-0.374;2023-05-08T07:53:05;101999.72;;;22.49;49.46
48862;BME280;34681;49.188;-0.374;2023-05-08T07:55:31;101999.38;;;22.37;49.81
48862;BME280;34681;49.188;-0.374;2023-05-08T07:57:57;102001.00;;;22.32;49.73
48862;BME280;34681;49.188;-0.374;2023-05-08T08:00:23;102005.91;;;22.15;50.20
48862;BME280;34681;49.188;-0.374;2023-05-08T08:02:48;102001.00;;;22.47;49.65
48862;BME280;34681;49.188;-0.374;2023-05-08T08:05:14;101995.50;;;22.53;49.54
48862;BME280;34681;49.188;-0.374;2023-05-08T08:07:39;102000.44;;;22.36;49.96
48862;BME280;34681;49.188;-0.374;2023-05-08T08:10:05;101995.22;;;22.48;49.59
48862;BME280;34681;49.188;-0.374;2023-05-08T08:12:30;101995.59;;;22.60;49.25
48862;BME280;34681;49.188;-0.374;2023-05-08T08:14:56;101992.53;;;22.40;49.76
48862;BME280;34681;49.188;-0.374;2023-05-08T08:17:22;101996.09;;;22.34;50.04
48862;BME280;34681;49.188;-0.374;2023-05-08T08:19:47;101996.09;;;22.34;50.17
48862;BME280;34681;49.188;-0.374;2023-05-08T08:22:13;101991.97;;;22.15;50.25
48862;BME280;34681;49.188;-0.374;2023-05-08T08:24:38;101985.44;;;22.08;50.49
48862;BME280;34681;49.188;-0.374;2023-05-08T08:27:04;101984.38;;;22.09;50.88
48862;BME280;34681;49.188;-0.374;2023-05-08T08:29:29;101987.38;;;22.22;50.60
48862;BME280;34681;49.188;-0.374;2023-05-08T08:31:55;101988.34;;;22.14;51.41
48862;BME280;34681;49.188;-0.374;2023-05-08T08:34:20;101980.81;;;22.00;51.45
48862;BME280;34681;49.188;-0.374;2023-05-08T08:36:46;101980.22;;;21.61;52.10
48862;BME280;34681;49.188;-0.374;2023-05-08T08:39:11;101975.38;;;21.40;51.83
48862;BME280;34681;49.188;-0.374;2023-05-08T08:41:39;101969.25;;;21.44;51.75
48862;BME280;34681;49.188;-0.374;2023-05-08T08:44:05;101972.53;;;21.63;51.48
48862;BME280;34681;49.188;-0.374;2023-05-08T08:46:31;101969.31;;;21.51;52.10
48862;BME280;34681;49.188;-0.374;2023-05-08T08:49:03;101973.19;;;21.65;51.72
48862;BME280;34681;49.188;-0.374;2023-05-08T08:51:35;101967.81;;;21.63;52.85
48862;BME280;34681;49.188;-0.374;2023-05-08T08:54:10;101970.53;;;21.71;52.49
48862;BME280;34681;49.188;-0.374;2023-05-08T08:56:37;101975.50;;;21.61;52.70
48862;BME280;34681;49.188;-0.374;2023-05-08T08:59:04;101972.03;;;21.44;53.39
48862;BME280;34681;49.188;-0.374;2023-05-08T09:01:33;101972.97;;;21.51;53.27
48862;BME280;34681;49.188;-0.374;2023-05-08T09:04:05;101972.91;;;21.74;53.15
48862;BME280;34681;49.188;-0.374;2023-05-08T09:06:34;101978.50;;;21.89;53.28
48862;BME280;34681;49.188;-0.374;2023-05-08T09:09:00;101981.88;;;21.99;52.88
48862;BME280;34681;49.188;-0.374;2023-05-08T09:11:26;101969.19;;;21.82;53.58
48862;BME280;34681;49.188;-0.374;2023-05-08T09:13:53;101973.78;;;21.75;53.42
48862;BME280;34681;49.188;-0.374;2023-05-08T09:16:19;101966.38;;;21.67;53.90
48862;BME280;34681;49.188;-0.374;2023-05-08T09:18:44;101968.13;;;21.83;53.67
48862;BME280;34681;49.188;-0.374;2023-05-08T09:21:10;101973.31;;;22.01;53.73
48862;BME280;34681;49.188;-0.374;2023-05-08T09:23:36;101973.72;;;22.27;53.39
48862;BME280;34681;49.188;-0.374;2023-05-08T09:26:01;101977.16;;;22.44;52.71
48862;BME280;34681;49.188;-0.374;2023-05-08T09:28:27;101976.25;;;22.58;52.53
48862;BME280;34681;49.188;-0.374;2023-05-08T09:30:57;101973.28;;;22.81;51.88
48862;BME280;34681;49.188;-0.374;2023-05-08T09:33:24;101972.78;;;23.91;50.15
48862;BME280;34681;49.188;-0.374;2023-05-08T09:35:50;101968.41;;;24.10;48.87
48862;BME280;34681;49.188;-0.374;2023-05-08T09:38:36;101969.00;;;24.33;48.27
48862;BME280;34681;49.188;-0.374;2023-05-08T09:41:09;101972.50;;;24.55;47.25
48862;BME280;34681;49.188;-0.374;2023-05-08T09:43:35;101965.03;;;24.21;47.79
48862;BME280;34681;49.188;-0.374;2023-05-08T09:46:24;101968.03;;;24.20;48.05
48862;BME280;34681;49.188;-0.374;2023-05-08T09:48:52;101962.44;;;24.20;48.48
48862;BME280;34681;49.188;-0.374;2023-05-08T09:51:18;101962.78;;;24.03;48.48
48862;BME280;34681;49.188;-0.374;2023-05-08T09:53:43;101965.19;;;24.13;48.31
48862;BME280;34681;49.188;-0.374;2023-05-08T09:56:09;101964.75;;;24.51;47.56
48862;BME280;34681;49.188;-0.374;2023-05-08T09:58:42;101963.53;;;24.80;47.46
48862;BME280;34681;49.188;-0.374;2023-05-08T10:01:27;101955.22;;;25.00;46.17
48862;BME280;34681;49.188;-0.374;2023-05-08T10:03:52;101951.94;;;24.83;46.62
48862;BME280;34681;49.188;-0.374;2023-05-08T10:06:18;101945.34;;;25.10;46.51
48862;BME280;34681;49.188;-0.374;2023-05-08T10:08:44;101936.72;;;25.32;45.89
48862;BME280;34681;49.188;-0.374;2023-05-08T10:11:18;101935.41;;;25.67;45.59
48862;BME280;34681;49.188;-0.374;2023-05-08T10:13:44;101928.09;;;25.60;46.09
48862;BME280;34681;49.188;-0.374;2023-05-08T10:16:14;101926.94;;;26.00;45.64
48862;BME280;34681;49.188;-0.374;2023-05-08T10:18:48;101920.13;;;26.41;44.46
48862;BME280;34681;49.188;-0.374;2023-05-08T10:21:14;101909.06;;;26.46;44.26
48862;BME280;34681;49.188;-0.374;2023-05-08T10:23:41;101910.63;;;25.77;44.14
48862;BME280;34681;49.188;-0.374;2023-05-08T10:26:15;101900.38;;;26.10;43.40
48862;BME280;34681;49.188;-0.374;2023-05-08T10:28:43;101898.69;;;25.95;43.91
48862;BME280;34681;49.188;-0.374;2023-05-08T10:31:16;101893.84;;;25.38;44.68
48862;BME280;34681;49.188;-0.374;2023-05-08T10:33:43;101888.03;;;25.33;44.90
48862;BME280;34681;49.188;-0.374;2023-05-08T10:36:09;101884.78;;;25.29;44.97
48862;BME280;34681;49.188;-0.374;2023-05-08T10:38:38;101887.78;;;25.54;44.89
48862;BME280;34681;49.188;-0.374;2023-05-08T10:41:04;101889.31;;;25.43;44.12
48862;BME280;34681;49.188;-0.374;2023-05-08T10:43:29;101891.44;;;25.55;44.51
48862;BME280;34681;49.188;-0.374;2023-05-08T10:45:56;101902.41;;;25.69;44.42
48862;BME280;34681;49.188;-0.374;2023-05-08T10:51:02;101903.69;;;25.87;43.94
48862;BME280;34681;49.188;-0.374;2023-05-08T10:53:41;101898.13;;;25.73;44.36
48862;BME280;34681;49.188;-0.374;2023-05-08T10:56:10;101891.34;;;26.08;43.79
48862;BME280;34681;49.188;-0.374;2023-05-08T10:58:36;101897.38;;;26.04;43.84
48862;BME280;34681;49.188;-0.374;2023-05-08T11:03:37;101882.31;;;25.99;43.59
48862;BME280;34681;49.188;-0.374;2023-05-08T11:06:03;101883.22;;;25.86;44.26
48862;BME280;34681;49.188;-0.374;2023-05-08T11:08:29;101878.94;;;26.22;43.86
48862;BME280;34681;49.188;-0.374;2023-05-08T11:13:32;101881.06;;;26.71;43.06
48862;BME280;34681;49.188;-0.374;2023-05-08T11:15:58;101885.47;;;26.92;40.87
48862;BME280;34681;49.188;-0.374;2023-05-08T11:18:23;101894.56;;;26.56;42.41
48862;BME280;34681;49.188;-0.374;2023-05-08T11:23:24;101895.50;;;26.43;42.16
48862;BME280;34681;49.188;-0.374;2023-05-08T11:26:04;101895.03;;;25.95;43.10
48862;BME280;34681;49.188;-0.374;2023-05-08T11:28:54;101882.88;;;25.03;44.22
48862;BME280;34681;49.188;-0.374;2023-05-08T11:31:20;101888.63;;;24.75;45.15
48862;BME280;34681;49.188;-0.374;2023-05-08T11:33:46;101894.63;;;24.72;45.36
48862;BME280;34681;49.188;-0.374;2023-05-08T11:36:16;101892.22;;;24.43;46.38
48862;BME280;34681;49.188;-0.374;2023-05-08T11:38:43;101895.97;;;24.22;46.63
48862;BME280;34681;49.188;-0.374;2023-05-08T11:41:28;101906.97;;;23.82;47.11
48862;BME280;34681;49.188;-0.374;2023-05-08T11:44:07;101912.81;;;23.87;47.73
48862;BME280;34681;49.188;-0.374;2023-05-08T11:46:52;101914.59;;;23.60;47.91
48862;BME280;34681;49.188;-0.374;2023-05-08T11:49:20;101917.53;;;23.31;49.60
48862;BME280;34681;49.188;-0.374;2023-05-08T11:51:57;101919.53;;;23.37;49.24
48862;BME280;34681;49.188;-0.374;2023-05-08T11:54:24;101917.63;;;23.16;49.21
48862;BME280;34681;49.188;-0.374;2023-05-08T11:56:57;101916.38;;;23.18;49.20
48862;BME280;34681;49.188;-0.374;2023-05-08T11:59:23;101912.66;;;23.39;49.06
48862;BME280;34681;49.188;-0.374;2023-05-08T12:01:49;101918.09;;;23.19;49.14
48862;BME280;34681;49.188;-0.374;2023-05-08T12:04:15;101920.81;;;23.34;49.14
48862;BME280;34681;49.188;-0.374;2023-05-08T12:06:41;101909.56;;;23.27;49.08
48862;BME280;34681;49.188;-0.374;2023-05-08T12:09:14;101911.75;;;23.32;49.27
48862;BME280;34681;49.188;-0.374;2023-05-08T12:11:40;101913.28;;;23.35;49.56
48862;BME280;34681;49.188;-0.374;2023-05-08T12:14:08;101910.34;;;23.43;49.11
48862;BME280;34681;49.188;-0.374;2023-05-08T12:16:37;101916.31;;;23.61;49.27
48862;BME280;34681;49.188;-0.374;2023-05-08T12:19:03;101913.84;;;23.79;49.21
48862;BME280;34681;49.188;-0.374;2023-05-08T12:21:33;101911.22;;;24.13;48.57
48862;BME280;34681;49.188;-0.374;2023-05-08T12:23:59;101912.44;;;24.45;48.43
48862;BME280;34681;49.188;-0.374;2023-05-08T12:26:24;101898.44;;;24.38;47.90
48862;BME280;34681;49.188;-0.374;2023-05-08T12:28:57;101892.94;;;24.84;47.33
48862;BME280;34681;49.188;-0.374;2023-05-08T12:31:34;101892.75;;;25.52;46.24
48862;BME280;34681;49.188;-0.374;2023-05-08T12:34:01;101890.56;;;25.54;46.06
48862;BME280;34681;49.188;-0.374;2023-05-08T12:36:26;101890.56;;;25.54;46.17
48862;BME280;34681;49.188;-0.374;2023-05-08T12:39:10;101895.94;;;25.69;45.10
48862;BME280;34681;49.188;-0.374;2023-05-08T12:41:57;101885.00;;;25.21;45.51
48862;BME280;34681;49.188;-0.374;2023-05-08T12:44:23;101884.16;;;25.20;45.73
48862;BME280;34681;49.188;-0.374;2023-05-08T12:46:54;101890.19;;;25.31;45.63
48862;BME280;34681;49.188;-0.374;2023-05-08T12:52:10;101877.06;;;25.05;45.70
48862;BME280;34681;49.188;-0.374;2023-05-08T12:54:38;101865.19;;;25.29;46.13
48862;BME280;34681;49.188;-0.374;2023-05-08T12:57:12;101873.53;;;25.62;45.36
48862;BME280;34681;49.188;-0.374;2023-05-08T12:59:38;101877.84;;;25.65;45.53
48862;BME280;34681;49.188;-0.374;2023-05-08T13:02:03;101873.28;;;25.90;45.05
48862;BME280;34681;49.188;-0.374;2023-05-08T13:04:29;101876.66;;;26.05;44.56
48862;BME280;34681;49.188;-0.374;2023-05-08T13:06:55;101874.59;;;26.32;44.30
48862;BME280;34681;49.188;-0.374;2023-05-08T13:09:21;101871.72;;;26.01;43.48
48862;BME280;34681;49.188;-0.374;2023-05-08T13:11:47;101873.31;;;25.64;44.58
48862;BME280;34681;49.188;-0.374;2023-05-08T13:14:13;101859.34;;;25.37;44.99
48862;BME280;34681;49.188;-0.374;2023-05-08T13:16:45;101862.63;;;25.08;45.39
48862;BME280;34681;49.188;-0.374;2023-05-08T13:19:12;101869.47;;;24.85;46.26
48862;BME280;34681;49.188;-0.374;2023-05-08T13:21:39;101867.09;;;24.69;47.21